sensor_id;sensor_type;location;lat;lon;timestamp;temperature;humidity
46730;DHT22;32476;50.002;11.854;2024-02-21T00:01:37;3.90;99.90
46730;DHT22;32476;50.002;11.854;2024-02-21T00:04:03;3.90;99.90
46730;DHT22;32476;50.002;11.854;2024-02-21T00:06:29;3.90;99.90
46730;DHT22;32476;50.002;11.854;2024-02-21T00:08:57;3.90;99.90
46730;DHT22;32476;50.002;11.854;2024-02-21T00:11:25;3.90;99.90
46730;DHT22;32476;50.002;11.854;2024-02-21T00:13:54;3.90;99.90
46730;DHT22;32476;50.002;11.854;2024-02-21T00:16:22;3.90;99.90
46730;DHT22;32476;50.002;11.854;2024-02-21T00:18:51;3.80;99.90
46730;DHT22;32476;50.002;11.854;2024-02-21T00:21:17;3.90;99.90
46730;DHT22;32476;50.002;11.854;2024-02-21T00:23:45;3.90;99.90
46730;DHT22;32476;50.002;11.854;2024-02-21T00:26:12;3.90;99.90
46730;DHT22;32476;50.002;11.854;2024-02-21T00:28:39;3.80;99.90
46730;DHT22;32476;50.002;11.854;2024-02-21T00:31:10;3.80;99.90
46730;DHT22;32476;50.002;11.854;2024-02-21T00:33:45;3.80;99.90
46730;DHT22;32476;50.002;11.854;2024-02-21T00:36:16;3.80;99.90
46730;DHT22;32476;50.002;11.854;2024-02-21T00:38:43;3.80;99.90
46730;DHT22;32476;50.002;11.854;2024-02-21T00:41:10;3.80;99.90
46730;DHT22;32476;50.002;11.854;2024-02-21T00:43:38;3.80;99.90
46730;DHT22;32476;50.002;11.854;2024-02-21T00:46:09;3.80;99.90
46730;DHT22;32476;50.002;11.854;2024-02-21T00:48:40;3.80;99.90
46730;DHT22;32476;50.002;11.854;2024-02-21T00:51:09;3.80;99.90
46730;DHT22;32476;50.002;11.854;2024-02-21T00:53:35;3.80;99.90
46730;DHT22;32476;50.002;11.854;2024-02-21T00:56:10;3.80;99.90
46730;DHT22;32476;50.002;11.854;2024-02-21T00:58:36;3.80;99.90
46730;DHT22;32476;50.002;11.854;2024-02-21T01:01:02;3.70;99.90
46730;DHT22;32476;50.002;11.854;2024-02-21T01:03:30;3.70;99.90
46730;DHT22;32476;50.002;11.854;2024-02-21T01:05:56;3.70;99.90
46730;DHT22;32476;50.002;11.854;2024-02-21T01:08:25;3.70;99.90
46730;DHT22;32476;50.002;11.854;2024-02-21T01:10:53;3.70;99.90
46730;DHT22;32476;50.002;11.854;2024-02-21T01:13:19;3.70;99.90
46730;DHT22;32476;50.002;11.854;2024-02-21T01:15:45;3.70;99.90
46730;DHT22;32476;50.002;11.854;2024-02-21T01:18:17;3.70;99.90
46730;DHT22;32476;50.002;11.854;2024-02-21T01:20:43;3.70;99.90
46730;DHT22;32476;50.002;11.854;2024-02-21T01:23:12;3.70;99.90
46730;DHT22;32476;50.002;11.854;2024-02-21T01:25:51;3.70;99.90
46730;DHT22;32476;50.002;11.854;2024-02-21T01:28:18;3.80;99.90
46730;DHT22;32476;50.002;11.854;2024-02-21T01:30:46;3.80;99.90
46730;DHT22;32476;50.002;11.854;2024-02-21T01:33:18;3.80;99.90
46730;DHT22;32476;50.002;11.854;2024-02-21T01:35:47;3.80;99.90
46730;DHT22;32476;50.002;11.854;2024-02-21T01:38:13;3.80;99.90
46730;DHT22;32476;50.002;11.854;2024-02-21T01:40:39;3.80;99.90
46730;DHT22;32476;50.002;11.854;2024-02-21T01:43:16;3.80;99.90
46730;DHT22;32476;50.002;11.854;2024-02-21T01:45:49;3.80;99.90
46730;DHT22;32476;50.002;11.854;2024-02-21T01:48:18;3.80;99.90
46730;DHT22;32476;50.002;11.854;2024-02-21T01:50:45;3.80;99.90
46730;DHT22;32476;50.002;11.854;2024-02-21T01:53:13;3.80;99.90
46730;DHT22;32476;50.002;11.854;2024-02-21T01:55:45;3.80;99.90
46730;DHT22;32476;50.002;11.854;2024-02-21T01:58:13;3.80;99.90
46730;DHT22;32476;50.002;11.854;2024-02-21T02:00:42;3.80;99.90
46730;DHT22;32476;50.002;11.854;2024-02-21T02:03:12;3.80;99.90
46730;DHT22;32476;50.002;11.854;2024-02-21T02:05:45;3.80;99.90
46730;DHT22;32476;50.002;11.854;2024-02-21T02:08:19;3.80;99.90
46730;DHT22;32476;50.002;11.854;2024-02-21T02:10:48;3.80;99.90
46730;DHT22;32476;50.002;11.854;2024-02-21T02:13:16;3.80;99.90
46730;DHT22;32476;50.002;11.854;2024-02-21T02:15:43;3.80;99.90
46730;DHT22;32476;50.002;11.854;2024-02-21T02:18:11;3.80;99.90
46730;DHT22;32476;50.002;11.854;2024-02-21T02:20:49;3.80;99.90
46730;DHT22;32476;50.002;11.854;2024-02-21T02:23:31;3.80;99.90
46730;DHT22;32476;50.002;11.854;2024-02-21T02:26:03;3.80;99.90
46730;DHT22;32476;50.002;11.854;2024-02-21T02:28:38;3.80;99.90
46730;DHT22;32476;50.002;11.854;2024-02-21T02:31:07;3.80;99.90
46730;DHT22;32476;50.002;11.854;2024-02-21T02:33:34;3.80;99.90
46730;DHT22;32476;50.002;11.854;2024-02-21T02:36:00;3.80;99.90
46730;DHT22;32476;50.002;11.854;2024-02-21T02:38:28;3.80;99.90
46730;DHT22;32476;50.002;11.854;2024-02-21T02:40:54;3.80;99.90
46730;DHT22;32476;50.002;11.854;2024-02-21T02:43:20;3.80;99.90
46730;DHT22;32476;50.002;11.854;2024-02-21T02:45:47;3.80;99.90
46730;DHT22;32476;50.002;11.854;2024-02-21T02:48:13;3.70;99.90
46730;DHT22;32476;50.002;11.854;2024-02-21T02:50:39;3.70;99.90
46730;DHT22;32476;50.002;11.854;2024-02-21T02:53:07;3.80;99.90
46730;DHT22;32476;50.002;11.854;2024-02-21T02:55:33;3.80;99.90
46730;DHT22;32476;50.002;11.854;2024-02-21T02:58:01;3.80;99.90
46730;DHT22;32476;50.002;11.854;2024-02-21T03:00:28;3.80;99.90
46730;DHT22;32476;50.002;11.854;2024-02-21T03:02:54;3.80;99.90
46730;DHT22;32476;50.002;11.854;2024-02-21T03:05:21;3.80;99.90
46730;DHT22;32476;50.002;11.854;2024-02-21T03:07:50;3.80;99.90
46730;DHT22;32476;50.002;11.854;2024-02-21T03:10:16;3.80;99.90
46730;DHT22;32476;50.002;11.854;2024-02-21T03:12:42;3.80;99.90
46730;DHT22;32476;50.002;11.854;2024-02-21T03:15:10;3.70;99.90
46730;DHT22;32476;50.002;11.854;2024-02-21T03:17:36;3.80;99.90
46730;DHT22;32476;50.002;11.854;2024-02-21T03:20:03;3.70;99.90
46730;DHT22;32476;50.002;11.854;2024-02-21T03:22:37;3.70;99.90
46730;DHT22;32476;50.002;11.854;2024-02-21T03:25:03;3.80;99.90
46730;DHT22;32476;50.002;11.854;2024-02-21T03:27:30;3.80;99.90
46730;DHT22;32476;50.002;11.854;2024-02-21T03:29:58;3.80;99.90
46730;DHT22;32476;50.002;11.854;2024-02-21T03:32:24;3.80;99.90
46730;DHT22;32476;50.002;11.854;2024-02-21T03:34:50;3.80;99.90
46730;DHT22;32476;50.002;11.854;2024-02-21T03:37:17;3.80;99.90
46730;DHT22;32476;50.002;11.854;2024-02-21T03:39:46;3.80;99.90
46730;DHT22;32476;50.002;11.854;2024-02-21T03:42:13;3.80;99.90
46730;DHT22;32476;50.002;11.854;2024-02-21T03:44:40;3.80;99.90
46730;DHT22;32476;50.002;11.854;2024-02-21T03:47:06;3.80;99.90
46730;DHT22;32476;50.002;11.854;2024-02-21T03:49:36;3.80;99.90
46730;DHT22;32476;50.002;11.854;2024-02-21T03:52:04;3.80;99.90
46730;DHT22;32476;50.002;11.854;2024-02-21T03:54:30;3.80;99.90
46730;DHT22;32476;50.002;11.854;2024-02-21T03:56:56;3.80;99.90
46730;DHT22;32476;50.002;11.854;2024-02-21T03:59:23;3.80;99.90
46730;DHT22;32476;50.002;11.854;2024-02-21T04:01:53;3.80;99.90
46730;DHT22;32476;50.002;11.854;2024-02-21T04:04:20;3.80;99.90
46730;DHT22;32476;50.002;11.854;2024-02-21T04:07:08;3.80;99.90
46730;DHT22;32476;50.002;11.854;2024-02-21T04:09:34;3.80;99.90
46730;DHT22;32476;50.002;11.854;2024-02-21T04:12:01;3.80;99.90
46730;DHT22;32476;50.002;11.854;2024-02-21T04:14:29;3.90;99.90
46730;DHT22;32476;50.002;11.854;2024-02-21T04:16:55;3.90;99.90
46730;DHT22;32476;50.002;11.854;2024-02-21T04:19:21;3.80;99.90
46730;DHT22;32476;50.002;11.854;2024-02-21T04:21:49;3.80;99.90
46730;DHT22;32476;50.002;11.854;2024-02-21T04:24:15;3.80;99.90
46730;DHT22;32476;50.002;11.854;2024-02-21T04:26:40;3.80;99.90
46730;DHT22;32476;50.002;11.854;2024-02-21T04:29:08;3.80;99.90
46730;DHT22;32476;50.002;11.854;2024-02-21T04:31:34;3.80;99.90
46730;DHT22;32476;50.002;11.854;2024-02-21T04:34:00;3.80;99.90
46730;DHT22;32476;50.002;11.854;2024-02-21T04:36:28;3.80;99.90
46730;DHT22;32476;50.002;11.854;2024-02-21T04:38:54;3.80;99.90
46730;DHT22;32476;50.002;11.854;2024-02-21T04:41:20;3.80;99.90
46730;DHT22;32476;50.002;11.854;2024-02-21T04:43:47;3.80;99.90
46730;DHT22;32476;50.002;11.854;2024-02-21T04:46:13;3.90;99.90
46730;DHT22;32476;50.002;11.854;2024-02-21T04:48:40;3.80;99.90
46730;DHT22;32476;50.002;11.854;2024-02-21T04:51:17;3.80;99.90
46730;DHT22;32476;50.002;11.854;2024-02-21T04:53:43;3.80;99.90
46730;DHT22;32476;50.002;11.854;2024-02-21T04:56:10;3.80;99.90
46730;DHT22;32476;50.002;11.854;2024-02-21T04:58:39;3.90;99.90
46730;DHT22;32476;50.002;11.854;2024-02-21T05:01:05;3.80;99.90
46730;DHT22;32476;50.002;11.854;2024-02-21T05:03:33;3.90;99.90
46730;DHT22;32476;50.002;11.854;2024-02-21T05:06:01;3.80;99.90
46730;DHT22;32476;50.002;11.854;2024-02-21T05:08:28;3.80;99.90
46730;DHT22;32476;50.002;11.854;2024-02-21T05:10:54;3.80;99.90
46730;DHT22;32476;50.002;11.854;2024-02-21T05:13:22;3.80;99.90
46730;DHT22;32476;50.002;11.854;2024-02-21T05:15:49;3.80;99.90
46730;DHT22;32476;50.002;11.854;2024-02-21T05:18:14;3.80;99.90
46730;DHT22;32476;50.002;11.854;2024-02-21T05:20:42;3.80;99.90
46730;DHT22;32476;50.002;11.854;2024-02-21T05:23:08;3.80;99.90
46730;DHT22;32476;50.002;11.854;2024-02-21T05:25:34;3.80;99.90
46730;DHT22;32476;50.002;11.854;2024-02-21T05:28:03;3.80;99.90
46730;DHT22;32476;50.002;11.854;2024-02-21T05:30:32;3.80;99.90
46730;DHT22;32476;50.002;11.854;2024-02-21T05:32:58;3.80;99.90
46730;DHT22;32476;50.002;11.854;2024-02-21T05:35:30;3.80;99.90
46730;DHT22;32476;50.002;11.854;2024-02-21T05:37:59;3.80;99.90
46730;DHT22;32476;50.002;11.854;2024-02-21T05:40:36;3.80;99.90
46730;DHT22;32476;50.002;11.854;2024-02-21T05:43:02;3.80;99.90
46730;DHT22;32476;50.002;11.854;2024-02-21T05:45:30;3.80;99.90
46730;DHT22;32476;50.002;11.854;2024-02-21T05:48:16;3.80;99.90
46730;DHT22;32476;50.002;11.854;2024-02-21T12:16:43;8.50;99.90
46730;DHT22;32476;50.002;11.854;2024-02-21T12:19:13;8.50;99.90
46730;DHT22;32476;50.002;11.854;2024-02-21T12:21:39;8.60;99.90
46730;DHT22;32476;50.002;11.854;2024-02-21T12:24:24;8.70;99.90
46730;DHT22;32476;50.002;11.854;2024-02-21T12:26:54;8.60;99.90
46730;DHT22;32476;50.002;11.854;2024-02-21T12:29:24;8.40;99.90
46730;DHT22;32476;50.002;11.854;2024-02-21T12:31:50;8.50;99.90
46730;DHT22;32476;50.002;11.854;2024-02-21T12:34:17;8.30;99.90
46730;DHT22;32476;50.002;11.854;2024-02-21T12:36:45;8.30;99.90
46730;DHT22;32476;50.002;11.854;2024-02-21T12:39:13;8.40;99.90
46730;DHT22;32476;50.002;11.854;2024-02-21T12:41:40;8.40;99.90
46730;DHT22;32476;50.002;11.854;2024-02-21T12:44:10;8.30;99.90
46730;DHT22;32476;50.002;11.854;2024-02-21T12:46:40;8.30;99.90
46730;DHT22;32476;50.002;11.854;2024-02-21T12:49:05;8.40;99.90
46730;DHT22;32476;50.002;11.854;2024-02-21T12:51:35;8.30;99.90
46730;DHT22;32476;50.002;11.854;2024-02-21T12:54:02;8.40;99.90
46730;DHT22;32476;50.002;11.854;2024-02-21T12:56:30;8.20;99.90
46730;DHT22;32476;50.002;11.854;2024-02-21T12:58:58;8.20;99.90
46730;DHT22;32476;50.002;11.854;2024-02-21T13:01:24;8.30;99.90
46730;DHT22;32476;50.002;11.854;2024-02-21T13:03:50;8.40;99.90
46730;DHT22;32476;50.002;11.854;2024-02-21T13:06:17;8.60;99.90
46730;DHT22;32476;50.002;11.854;2024-02-21T13:08:44;8.80;99.90
46730;DHT22;32476;50.002;11.854;2024-02-21T13:11:12;8.80;99.90
46730;DHT22;32476;50.002;11.854;2024-02-21T13:13:40;9.00;99.90
46730;DHT22;32476;50.002;11.854;2024-02-21T13:16:06;8.90;99.90
46730;DHT22;32476;50.002;11.854;2024-02-21T13:18:32;8.80;99.90
46730;DHT22;32476;50.002;11.854;2024-02-21T13:21:01;8.80;99.90
46730;DHT22;32476;50.002;11.854;2024-02-21T13:23:26;8.90;99.90
46730;DHT22;32476;50.002;11.854;2024-02-21T13:25:52;9.20;99.90
46730;DHT22;32476;50.002;11.854;2024-02-21T13:28:20;9.40;99.90
46730;DHT22;32476;50.002;11.854;2024-02-21T13:30:46;9.40;99.90
46730;DHT22;32476;50.002;11.854;2024-02-21T13:33:13;9.10;99.90
46730;DHT22;32476;50.002;11.854;2024-02-21T13:35:40;9.10;99.90
46730;DHT22;32476;50.002;11.854;2024-02-21T13:38:06;8.80;99.90
46730;DHT22;32476;50.002;11.854;2024-02-21T13:40:32;8.90;99.90
46730;DHT22;32476;50.002;11.854;2024-02-21T13:43:00;8.90;99.90
46730;DHT22;32476;50.002;11.854;2024-02-21T13:45:26;8.90;99.90
46730;DHT22;32476;50.002;11.854;2024-02-21T13:47:52;8.90;99.90
46730;DHT22;32476;50.002;11.854;2024-02-21T13:50:23;8.90;99.90
46730;DHT22;32476;50.002;11.854;2024-02-21T13:52:49;8.70;99.90
46730;DHT22;32476;50.002;11.854;2024-02-21T13:55:15;8.70;99.90
46730;DHT22;32476;50.002;11.854;2024-02-21T13:57:43;8.60;99.90
46730;DHT22;32476;50.002;11.854;2024-02-21T14:00:09;8.70;99.90
46730;DHT22;32476;50.002;11.854;2024-02-21T14:02:36;8.70;99.90
46730;DHT22;32476;50.002;11.854;2024-02-21T14:05:05;8.70;99.90
46730;DHT22;32476;50.002;11.854;2024-02-21T14:07:32;8.80;99.90
46730;DHT22;32476;50.002;11.854;2024-02-21T14:10:01;8.90;99.90
46730;DHT22;32476;50.002;11.854;2024-02-21T14:12:30;9.00;99.90
46730;DHT22;32476;50.002;11.854;2024-02-21T14:14:57;9.00;99.90
46730;DHT22;32476;50.002;11.854;2024-02-21T14:17:24;8.90;99.90
46730;DHT22;32476;50.002;11.854;2024-02-21T14:19:51;8.70;99.90
46730;DHT22;32476;50.002;11.854;2024-02-21T14:22:17;8.70;99.90
46730;DHT22;32476;50.002;11.854;2024-02-21T14:24:44;8.60;99.90
46730;DHT22;32476;50.002;11.854;2024-02-21T14:27:12;8.70;99.90
46730;DHT22;32476;50.002;11.854;2024-02-21T14:29:38;8.50;99.90
46730;DHT22;32476;50.002;11.854;2024-02-21T14:32:04;8.50;99.90
46730;DHT22;32476;50.002;11.854;2024-02-21T14:34:33;8.40;99.90
46730;DHT22;32476;50.002;11.854;2024-02-21T14:36:58;8.40;99.90
46730;DHT22;32476;50.002;11.854;2024-02-21T14:39:24;8.50;99.90
46730;DHT22;32476;50.002;11.854;2024-02-21T14:41:53;8.50;99.90
46730;DHT22;32476;50.002;11.854;2024-02-21T14:44:19;8.40;99.90
46730;DHT22;32476;50.002;11.854;2024-02-21T14:46:45;8.30;99.90
46730;DHT22;32476;50.002;11.854;2024-02-21T14:49:13;8.20;99.90
46730;DHT22;32476;50.002;11.854;2024-02-21T14:51:38;8.20;99.90
46730;DHT22;32476;50.002;11.854;2024-02-21T14:54:04;8.10;99.90
46730;DHT22;32476;50.002;11.854;2024-02-21T14:56:32;8.00;99.90
46730;DHT22;32476;50.002;11.854;2024-02-21T14:58:58;8.00;99.90
46730;DHT22;32476;50.002;11.854;2024-02-21T15:01:24;8.00;99.90
46730;DHT22;32476;50.002;11.854;2024-02-21T15:03:51;7.90;99.90
46730;DHT22;32476;50.002;11.854;2024-02-21T15:06:17;7.90;99.90
46730;DHT22;32476;50.002;11.854;2024-02-21T15:08:44;7.90;99.90
46730;DHT22;32476;50.002;11.854;2024-02-21T15:11:11;7.90;99.90
46730;DHT22;32476;50.002;11.854;2024-02-21T15:13:37;7.90;99.90
46730;DHT22;32476;50.002;11.854;2024-02-21T15:16:04;7.90;99.90
46730;DHT22;32476;50.002;11.854;2024-02-21T15:18:32;7.90;99.90
46730;DHT22;32476;50.002;11.854;2024-02-21T15:20:59;7.90;99.90
46730;DHT22;32476;50.002;11.854;2024-02-21T15:23:25;7.90;99.90
46730;DHT22;32476;50.002;11.854;2024-02-21T15:25:53;7.80;99.90
46730;DHT22;32476;50.002;11.854;2024-02-21T15:28:19;7.80;99.90
46730;DHT22;32476;50.002;11.854;2024-02-21T15:30:45;7.80;99.90
46730;DHT22;32476;50.002;11.854;2024-02-21T15:33:12;7.80;99.90
46730;DHT22;32476;50.002;11.854;2024-02-21T15:35:38;7.70;99.90
46730;DHT22;32476;50.002;11.854;2024-02-21T15:38:04;7.80;99.90
46730;DHT22;32476;50.002;11.854;2024-02-21T15:40:32;7.70;99.90
46730;DHT22;32476;50.002;11.854;2024-02-21T15:43:02;7.70;99.90
46730;DHT22;32476;50.002;11.854;2024-02-21T15:45:28;7.70;99.90
46730;DHT22;32476;50.002;11.854;2024-02-21T15:47:56;7.60;99.90
46730;DHT22;32476;50.002;11.854;2024-02-21T15:50:22;7.50;99.90
46730;DHT22;32476;50.002;11.854;2024-02-21T15:52:48;7.50;99.90
46730;DHT22;32476;50.002;11.854;2024-02-21T15:55:15;7.40;99.90
46730;DHT22;32476;50.002;11.854;2024-02-21T15:57:44;7.40;99.90
46730;DHT22;32476;50.002;11.854;2024-02-21T16:00:10;7.30;99.90
46730;DHT22;32476;50.002;11.854;2024-02-21T16:02:40;7.30;99.90
46730;DHT22;32476;50.002;11.854;2024-02-21T16:05:10;7.30;99.90
46730;DHT22;32476;50.002;11.854;2024-02-21T16:07:40;7.20;99.90
46730;DHT22;32476;50.002;11.854;2024-02-21T16:10:07;7.10;99.90
46730;DHT22;32476;50.002;11.854;2024-02-21T16:12:34;7.10;99.90
46730;DHT22;32476;50.002;11.854;2024-02-21T16:15:00;7.00;99.90
46730;DHT22;32476;50.002;11.854;2024-02-21T16:17:28;7.00;99.90
46730;DHT22;32476;50.002;11.854;2024-02-21T16:19:54;7.00;99.90
46730;DHT22;32476;50.002;11.854;2024-02-21T16:22:20;6.90;99.90
46730;DHT22;32476;50.002;11.854;2024-02-21T16:24:48;6.80;99.90
46730;DHT22;32476;50.002;11.854;2024-02-21T16:27:14;6.80;99.90
46730;DHT22;32476;50.002;11.854;2024-02-21T16:29:40;6.80;99.90
46730;DHT22;32476;50.002;11.854;2024-02-21T16:32:08;6.80;99.90
46730;DHT22;32476;50.002;11.854;2024-02-21T16:34:34;6.70;99.90
46730;DHT22;32476;50.002;11.854;2024-02-21T16:37:00;6.60;99.90
46730;DHT22;32476;50.002;11.854;2024-02-21T16:39:28;6.60;99.90
46730;DHT22;32476;50.002;11.854;2024-02-21T16:41:54;6.60;99.90
46730;DHT22;32476;50.002;11.854;2024-02-21T16:44:26;6.50;99.90
46730;DHT22;32476;50.002;11.854;2024-02-21T16:46:53;6.50;99.90
46730;DHT22;32476;50.002;11.854;2024-02-21T16:49:19;6.50;99.90
46730;DHT22;32476;50.002;11.854;2024-02-21T16:51:45;6.50;99.90
46730;DHT22;32476;50.002;11.854;2024-02-21T16:54:12;6.50;99.90
46730;DHT22;32476;50.002;11.854;2024-02-21T16:56:39;6.50;99.90
46730;DHT22;32476;50.002;11.854;2024-02-21T16:59:05;6.50;99.90
46730;DHT22;32476;50.002;11.854;2024-02-21T17:01:35;6.50;99.90
46730;DHT22;32476;50.002;11.854;2024-02-21T17:04:05;6.40;99.90
46730;DHT22;32476;50.002;11.854;2024-02-21T17:06:34;6.40;99.90
46730;DHT22;32476;50.002;11.854;2024-02-21T17:09:00;6.40;99.90
46730;DHT22;32476;50.002;11.854;2024-02-21T17:11:27;6.40;99.90
46730;DHT22;32476;50.002;11.854;2024-02-21T17:13:54;6.40;99.90
46730;DHT22;32476;50.002;11.854;2024-02-21T17:16:20;6.30;99.90
46730;DHT22;32476;50.002;11.854;2024-02-21T17:18:46;6.30;99.90
46730;DHT22;32476;50.002;11.854;2024-02-21T17:21:14;6.20;99.90
46730;DHT22;32476;50.002;11.854;2024-02-21T17:23:40;6.20;99.90
46730;DHT22;32476;50.002;11.854;2024-02-21T17:26:06;6.20;99.90
46730;DHT22;32476;50.002;11.854;2024-02-21T17:28:34;6.20;99.90
46730;DHT22;32476;50.002;11.854;2024-02-21T17:31:00;6.10;99.90
46730;DHT22;32476;50.002;11.854;2024-02-21T17:33:26;6.10;99.90
46730;DHT22;32476;50.002;11.854;2024-02-21T17:35:54;6.00;99.90
46730;DHT22;32476;50.002;11.854;2024-02-21T17:38:20;5.90;99.90
46730;DHT22;32476;50.002;11.854;2024-02-21T17:40:47;5.90;99.90
46730;DHT22;32476;50.002;11.854;2024-02-21T17:43:16;5.90;99.90
46730;DHT22;32476;50.002;11.854;2024-02-21T17:45:42;5.90;99.90
46730;DHT22;32476;50.002;11.854;2024-02-21T17:48:08;5.90;99.90
46730;DHT22;32476;50.002;11.854;2024-02-21T17:50:36;5.70;99.90
46730;DHT22;32476;50.002;11.854;2024-02-21T17:53:02;5.60;99.90
46730;DHT22;32476;50.002;11.854;2024-02-21T17:55:29;5.50;99.90
46730;DHT22;32476;50.002;11.854;2024-02-21T17:57:57;5.60;99.90
46730;DHT22;32476;50.002;11.854;2024-02-21T18:00:23;5.70;99.90
46730;DHT22;32476;50.002;11.854;2024-02-21T18:02:50;5.70;99.90
46730;DHT22;32476;50.002;11.854;2024-02-21T18:05:17;5.80;99.90
46730;DHT22;32476;50.002;11.854;2024-02-21T18:07:43;5.80;99.90
46730;DHT22;32476;50.002;11.854;2024-02-21T18:10:09;5.80;99.90
46730;DHT22;32476;50.002;11.854;2024-02-21T18:12:37;6.00;99.90
46730;DHT22;32476;50.002;11.854;2024-02-21T18:15:03;6.10;99.90
46730;DHT22;32476;50.002;11.854;2024-02-21T18:17:30;6.10;99.90
46730;DHT22;32476;50.002;11.854;2024-02-21T18:20:00;6.00;99.90
46730;DHT22;32476;50.002;11.854;2024-02-21T18:22:28;6.00;99.90
46730;DHT22;32476;50.002;11.854;2024-02-21T18:24:54;5.90;99.90
46730;DHT22;32476;50.002;11.854;2024-02-21T18:27:22;5.90;99.90
46730;DHT22;32476;50.002;11.854;2024-02-21T18:29:48;5.90;99.90
46730;DHT22;32476;50.002;11.854;2024-02-21T18:32:14;5.70;99.90
46730;DHT22;32476;50.002;11.854;2024-02-21T18:34:41;5.70;99.90
46730;DHT22;32476;50.002;11.854;2024-02-21T18:37:09;5.70;99.90
46730;DHT22;32476;50.002;11.854;2024-02-21T18:39:35;5.90;99.90
46730;DHT22;32476;50.002;11.854;2024-02-21T18:42:03;5.90;99.90
46730;DHT22;32476;50.002;11.854;2024-02-21T18:44:29;5.90;99.90
46730;DHT22;32476;50.002;11.854;2024-02-21T18:46:55;5.90;99.90
46730;DHT22;32476;50.002;11.854;2024-02-21T18:49:23;5.80;99.90
46730;DHT22;32476;50.002;11.854;2024-02-21T18:51:49;5.80;99.90
46730;DHT22;32476;50.002;11.854;2024-02-21T18:54:15;5.70;99.90
46730;DHT22;32476;50.002;11.854;2024-02-21T18:56:47;5.60;99.90
46730;DHT22;32476;50.002;11.854;2024-02-21T18:59:13;5.60;99.90
46730;DHT22;32476;50.002;11.854;2024-02-21T19:01:44;5.60;99.90
46730;DHT22;32476;50.002;11.854;2024-02-21T19:04:12;5.60;99.90
46730;DHT22;32476;50.002;11.854;2024-02-21T19:06:37;5.60;99.90
46730;DHT22;32476;50.002;11.854;2024-02-21T19:09:04;5.50;99.90
46730;DHT22;32476;50.002;11.854;2024-02-21T19:11:34;5.50;99.90
46730;DHT22;32476;50.002;11.854;2024-02-21T19:14:00;5.50;99.90
46730;DHT22;32476;50.002;11.854;2024-02-21T19:16:27;5.40;99.90
46730;DHT22;32476;50.002;11.854;2024-02-21T19:18:55;5.40;99.90
46730;DHT22;32476;50.002;11.854;2024-02-21T19:21:21;5.50;99.90
46730;DHT22;32476;50.002;11.854;2024-02-21T19:23:47;5.50;99.90
46730;DHT22;32476;50.002;11.854;2024-02-21T19:26:15;5.50;99.90
46730;DHT22;32476;50.002;11.854;2024-02-21T19:28:41;5.60;99.90
46730;DHT22;32476;50.002;11.854;2024-02-21T19:31:06;5.70;99.90
46730;DHT22;32476;50.002;11.854;2024-02-21T19:33:34;5.70;99.90
46730;DHT22;32476;50.002;11.854;2024-02-21T19:36:00;5.70;99.90
46730;DHT22;32476;50.002;11.854;2024-02-21T19:38:27;5.70;99.90
46730;DHT22;32476;50.002;11.854;2024-02-21T19:40:55;5.80;99.90
46730;DHT22;32476;50.002;11.854;2024-02-21T19:43:22;5.80;99.90
46730;DHT22;32476;50.002;11.854;2024-02-21T19:45:48;5.70;99.90
46730;DHT22;32476;50.002;11.854;2024-02-21T19:48:16;5.70;99.90
46730;DHT22;32476;50.002;11.854;2024-02-21T19:50:43;5.70;99.90
46730;DHT22;32476;50.002;11.854;2024-02-21T19:53:10;5.70;99.90
46730;DHT22;32476;50.002;11.854;2024-02-21T19:55:37;5.70;99.90
46730;DHT22;32476;50.002;11.854;2024-02-21T19:58:03;5.60;99.90
46730;DHT22;32476;50.002;11.854;2024-02-21T20:00:30;5.50;99.90
46730;DHT22;32476;50.002;11.854;2024-02-21T20:02:59;5.50;99.90
46730;DHT22;32476;50.002;11.854;2024-02-21T20:05:25;5.60;99.90
46730;DHT22;32476;50.002;11.854;2024-02-21T20:07:51;5.60;99.90
46730;DHT22;32476;50.002;11.854;2024-02-21T20:10:18;5.60;99.90
46730;DHT22;32476;50.002;11.854;2024-02-21T20:12:45;5.70;99.90
46730;DHT22;32476;50.002;11.854;2024-02-21T20:15:11;5.60;99.90
46730;DHT22;32476;50.002;11.854;2024-02-21T20:17:41;5.60;99.90
46730;DHT22;32476;50.002;11.854;2024-02-21T20:20:12;5.60;99.90
46730;DHT22;32476;50.002;11.854;2024-02-21T20:22:41;5.60;99.90
46730;DHT22;32476;50.002;11.854;2024-02-21T20:25:10;5.60;99.90
46730;DHT22;32476;50.002;11.854;2024-02-21T20:27:36;5.70;99.90
46730;DHT22;32476;50.002;11.854;2024-02-21T20:30:05;5.70;99.90
46730;DHT22;32476;50.002;11.854;2024-02-21T20:32:31;5.70;99.90
46730;DHT22;32476;50.002;11.854;2024-02-21T20:34:57;5.70;99.90
46730;DHT22;32476;50.002;11.854;2024-02-21T20:37:24;5.70;99.90
46730;DHT22;32476;50.002;11.854;2024-02-21T20:39:51;5.70;99.90
46730;DHT22;32476;50.002;11.854;2024-02-21T20:42:17;5.70;99.90
46730;DHT22;32476;50.002;11.854;2024-02-21T20:44:45;5.80;99.90
46730;DHT22;32476;50.002;11.854;2024-02-21T20:47:11;5.80;99.90
46730;DHT22;32476;50.002;11.854;2024-02-21T20:49:37;5.90;99.90
46730;DHT22;32476;50.002;11.854;2024-02-21T20:52:04;5.90;99.90
46730;DHT22;32476;50.002;11.854;2024-02-21T20:54:31;5.90;99.90
46730;DHT22;32476;50.002;11.854;2024-02-21T20:56:57;5.90;99.90
46730;DHT22;32476;50.002;11.854;2024-02-21T20:59:24;5.90;99.90
46730;DHT22;32476;50.002;11.854;2024-02-21T21:01:50;5.80;99.90
46730;DHT22;32476;50.002;11.854;2024-02-21T21:04:16;5.80;99.90
46730;DHT22;32476;50.002;11.854;2024-02-21T21:06:44;5.80;99.90
46730;DHT22;32476;50.002;11.854;2024-02-21T21:09:10;5.80;99.90
46730;DHT22;32476;50.002;11.854;2024-02-21T21:11:36;5.80;99.90
46730;DHT22;32476;50.002;11.854;2024-02-21T21:14:04;5.80;99.90
46730;DHT22;32476;50.002;11.854;2024-02-21T21:16:31;5.80;99.90
46730;DHT22;32476;50.002;11.854;2024-02-21T21:19:01;5.80;99.90
46730;DHT22;32476;50.002;11.854;2024-02-21T21:21:29;5.70;99.90
46730;DHT22;32476;50.002;11.854;2024-02-21T21:23:56;5.70;99.90
46730;DHT22;32476;50.002;11.854;2024-02-21T21:26:22;5.70;99.90
46730;DHT22;32476;50.002;11.854;2024-02-21T21:28:50;5.60;99.90
46730;DHT22;32476;50.002;11.854;2024-02-21T21:31:25;5.60;99.90
46730;DHT22;32476;50.002;11.854;2024-02-21T21:33:53;5.60;99.90
46730;DHT22;32476;50.002;11.854;2024-02-21T21:36:19;5.60;99.90
46730;DHT22;32476;50.002;11.854;2024-02-21T21:38:46;5.60;99.90
46730;DHT22;32476;50.002;11.854;2024-02-21T21:41:15;5.50;99.90
46730;DHT22;32476;50.002;11.854;2024-02-21T21:43:41;5.60;99.90
46730;DHT22;32476;50.002;11.854;2024-02-21T21:46:14;5.50;99.90
46730;DHT22;32476;50.002;11.854;2024-02-21T21:48:42;5.60;99.90
46730;DHT22;32476;50.002;11.854;2024-02-21T21:51:08;5.50;99.90
46730;DHT22;32476;50.002;11.854;2024-02-21T21:53:35;5.50;99.90
46730;DHT22;32476;50.002;11.854;2024-02-21T21:56:03;5.50;99.90
46730;DHT22;32476;50.002;11.854;2024-02-21T21:58:32;5.50;99.90